Terminal Aerodrome Forecast
Issued by NWS Grand Forks, ND

Home | Current Version | Previous Version | Text Only | Print | Product List | Glossary Off
Versions: 1 2 3 4 5 6 7 8 9 10 11 12 13

000
FTUS43 KFGF 271700
TAFFAR
TAF
KFAR 271720Z 2718/2818 35015G25KT P6SM BKN025
      TEMPO 2719/2721 BKN040
     FM272100 35017KT P6SM BKN040
     FM280300 34008KT P6SM SKC=

USA.gov is the U.S. government's official web portal to all federal, state and local government web resources and services.